Time;durP1;ratioP1;P1;durP2;ratioP2;P2;SDS_P1;SDS_P2;PMS_P1;PMS_P2;Temp;Humidity;BMP_temperature;BMP_pressure;BME280_temperature;BME280_humidity;BME280_pressure;Samples;Min_cycle;Max_cycle;Signal;HPM_P1;HPM_P2
2021/10/14 00:01:37;;;;;;;4.82;2.70;;;8.70;99.90;;;;;;5054733;28;20203;-72
2021/10/14 00:04:04;;;;;;;3.88;2.50;;;8.70;99.90;;;;;;5055666;28;20290;-73
2021/10/14 00:06:31;;;;;;;2.47;2.28;;;8.60;99.90;;;;;;5054941;28;20222;-73
2021/10/14 00:08:57;;;;;;;3.10;2.80;;;8.60;99.90;;;;;;5054564;28;20215;-73
2021/10/14 00:11:27;;;;;;;3.75;2.47;;;8.60;99.90;;;;;;5054887;28;20311;-74
2021/10/14 00:13:54;;;;;;;4.35;2.63;;;8.60;99.90;;;;;;5056058;28;20199;-74
2021/10/14 00:16:21;;;;;;;2.22;2.00;;;8.50;99.90;;;;;;5053604;28;20761;-75
2021/10/14 00:18:47;;;;;;;4.18;2.42;;;8.50;99.90;;;;;;5053707;28;20219;-75
2021/10/14 00:21:14;;;;;;;2.10;1.90;;;8.50;99.90;;;;;;5053673;28;20220;-76
2021/10/14 00:23:41;;;;;;;2.92;2.35;;;8.50;99.90;;;;;;5054722;28;20687;-75
2021/10/14 00:26:08;;;;;;;2.42;2.22;;;8.50;99.90;;;;;;5056023;28;20302;-74
2021/10/14 00:28:36;;;;;;;2.97;2.42;;;8.50;99.90;;;;;;5055834;28;20791;-75
2021/10/14 00:31:03;;;;;;;3.05;2.58;;;8.40;99.90;;;;;;5055489;28;20226;-75
2021/10/14 00:33:30;;;;;;;3.15;2.25;;;8.30;99.90;;;;;;5055529;28;20257;-75
2021/10/14 00:35:57;;;;;;;5.18;2.80;;;8.30;99.90;;;;;;5056090;28;20291;-75
2021/10/14 00:38:23;;;;;;;3.38;2.60;;;8.20;99.90;;;;;;5055801;28;20288;-75
2021/10/14 00:40:50;;;;;;;3.00;2.20;;;8.30;99.90;;;;;;5055466;28;20223;-74
2021/10/14 00:43:17;;;;;;;4.15;2.97;;;8.40;99.90;;;;;;5055655;28;20290;-73
2021/10/14 00:45:45;;;;;;;2.95;2.65;;;8.40;99.90;;;;;;5055508;28;20213;-74
2021/10/14 00:48:12;;;;;;;3.45;2.30;;;8.40;99.90;;;;;;5056821;28;20318;-75
2021/10/14 00:50:39;;;;;;;2.83;2.55;;;8.40;99.90;;;;;;5054658;28;20204;-74
2021/10/14 00:53:07;;;;;;;5.13;3.00;;;8.30;99.90;;;;;;5055362;28;20205;-74
2021/10/14 00:55:35;;;;;;;2.58;2.20;;;8.40;99.90;;;;;;5054748;28;20207;-74
2021/10/14 00:58:02;;;;;;;3.00;2.70;;;8.40;99.90;;;;;;5053886;28;20310;-76
2021/10/14 01:00:29;;;;;;;3.05;2.20;;;8.30;99.90;;;;;;5052813;28;20313;-76
2021/10/14 01:02:58;;;;;;;2.10;1.92;;;8.30;99.90;;;;;;5052780;28;20300;-75
2021/10/14 01:05:25;;;;;;;3.83;2.38;;;8.30;99.90;;;;;;5052772;28;20294;-76
2021/10/14 01:07:52;;;;;;;3.78;2.50;;;8.30;99.90;;;;;;5052523;28;20223;-76
2021/10/14 01:10:18;;;;;;;3.92;2.60;;;8.30;99.90;;;;;;5053728;28;20199;-73
2021/10/14 01:12:47;;;;;;;4.25;2.35;;;8.30;99.90;;;;;;5053099;28;20214;-71
2021/10/14 01:15:22;;;;;;;4.15;2.92;;;8.30;99.90;;;;;;5053753;28;20254;-71
2021/10/14 01:17:49;;;;;;;3.03;2.38;;;8.30;99.90;;;;;;5053386;28;20222;-72
2021/10/14 01:20:17;;;;;;;2.95;2.35;;;8.30;99.90;;;;;;5052935;28;20567;-72
2021/10/14 01:22:44;;;;;;;3.40;2.60;;;8.30;99.90;;;;;;5053032;28;20675;-72
2021/10/14 01:25:11;;;;;;;6.43;2.92;;;8.40;99.90;;;;;;5052509;28;20250;-72
2021/10/14 01:27:38;;;;;;;2.92;2.20;;;8.40;99.90;;;;;;5052221;28;20234;-71
2021/10/14 01:30:06;;;;;;;2.47;2.00;;;8.30;99.90;;;;;;5052523;28;20290;-73
2021/10/14 01:32:33;;;;;;;5.35;2.40;;;8.20;99.90;;;;;;5051793;28;20214;-72
2021/10/14 01:35:03;;;;;;;2.83;2.42;;;8.20;99.90;;;;;;5051912;28;20214;-72
2021/10/14 01:37:31;;;;;;;2.97;2.47;;;8.20;99.90;;;;;;5053258;28;20276;-70
2021/10/14 01:39:58;;;;;;;3.33;2.72;;;8.20;99.90;;;;;;5053377;28;20735;-70
2021/10/14 01:42:26;;;;;;;3.40;3.10;;;8.20;99.90;;;;;;5052838;28;20206;-71
2021/10/14 01:44:53;;;;;;;3.05;2.50;;;8.20;99.90;;;;;;5052852;28;20211;-71
2021/10/14 01:47:20;;;;;;;2.50;2.30;;;8.00;99.90;;;;;;5052159;28;20322;-70
2021/10/14 01:49:47;;;;;;;3.47;2.80;;;7.80;99.90;;;;;;5052069;28;20291;-70
2021/10/14 01:52:15;;;;;;;4.10;3.20;;;7.70;99.90;;;;;;5052724;28;20207;-72
2021/10/14 01:54:43;;;;;;;5.00;3.10;;;7.70;99.90;;;;;;5053098;28;20241;-70
2021/10/14 01:57:10;;;;;;;5.32;2.75;;;7.70;99.90;;;;;;5052373;28;20207;-72
2021/10/14 01:59:37;;;;;;;4.93;2.70;;;7.80;99.90;;;;;;5052154;28;20211;-72
2021/10/14 02:02:04;;;;;;;3.55;3.05;;;7.80;99.90;;;;;;5056015;28;20744;-72
2021/10/14 02:04:31;;;;;;;4.40;3.50;;;7.80;99.90;;;;;;5057897;28;20209;-71
2021/10/14 02:06:58;;;;;;;3.83;2.95;;;7.80;99.90;;;;;;5056487;28;20203;-70
2021/10/14 02:09:25;;;;;;;3.67;3.03;;;7.90;99.90;;;;;;5056443;28;20199;-71
2021/10/14 02:11:53;;;;;;;4.03;3.45;;;7.90;99.90;;;;;;5057640;28;20294;-72
2021/10/14 02:14:20;;;;;;;3.45;2.97;;;8.00;99.90;;;;;;5057683;28;20211;-71
2021/10/14 02:16:47;;;;;;;3.80;3.08;;;8.00;99.90;;;;;;5056637;28;20210;-72
2021/10/14 02:19:14;;;;;;;4.78;2.85;;;8.00;99.90;;;;;;5057857;28;20227;-72
2021/10/14 02:21:41;;;;;;;4.53;3.10;;;8.00;99.90;;;;;;5058204;28;20677;-72
2021/10/14 02:24:08;;;;;;;2.88;2.63;;;8.00;99.90;;;;;;5057840;28;20692;-73
2021/10/14 02:26:35;;;;;;;3.75;2.65;;;8.00;99.90;;;;;;5057910;28;20619;-73
2021/10/14 02:29:03;;;;;;;4.18;2.70;;;7.80;99.90;;;;;;5057147;28;20319;-72
2021/10/14 02:31:30;;;;;;;3.42;2.55;;;7.80;99.90;;;;;;5056964;28;20295;-72
2021/10/14 02:33:56;;;;;;;4.88;2.80;;;7.70;99.90;;;;;;5057179;28;20298;-73
2021/10/14 02:36:23;;;;;;;4.65;3.08;;;7.60;99.90;;;;;;5057964;28;20235;-73
2021/10/14 02:38:50;;;;;;;4.22;3.05;;;7.40;99.90;;;;;;5057902;28;20231;-73
2021/10/14 02:41:17;;;;;;;2.65;2.42;;;7.30;99.90;;;;;;5057453;28;20562;-72
2021/10/14 02:43:44;;;;;;;3.85;2.88;;;7.40;99.90;;;;;;5057686;28;20200;-73
2021/10/14 02:46:12;;;;;;;3.72;2.58;;;7.30;99.90;;;;;;5057396;28;20199;-72
2021/10/14 02:48:38;;;;;;;4.32;2.75;;;7.20;99.90;;;;;;5057395;28;20590;-72
2021/10/14 02:51:05;;;;;;;3.28;2.58;;;7.30;99.90;;;;;;5056593;28;20290;-72
2021/10/14 02:53:32;;;;;;;4.40;2.60;;;7.40;99.90;;;;;;5056876;28;20293;-72
2021/10/14 02:55:59;;;;;;;4.82;3.03;;;7.40;99.90;;;;;;5056861;28;20621;-72
2021/10/14 02:58:26;;;;;;;3.20;2.30;;;7.50;99.90;;;;;;5056695;28;20229;-72
2021/10/14 03:00:52;;;;;;;3.60;2.63;;;7.60;99.90;;;;;;5056557;28;20239;-72
2021/10/14 03:03:21;;;;;;;4.65;2.45;;;7.60;99.90;;;;;;5056340;28;20294;-72
2021/10/14 03:05:47;;;;;;;2.67;2.25;;;7.60;99.90;;;;;;5056663;28;20292;-72
2021/10/14 03:08:14;;;;;;;3.30;2.17;;;7.40;99.90;;;;;;5057065;28;20779;-73
2021/10/14 03:10:41;;;;;;;2.75;1.95;;;7.20;99.90;;;;;;5056673;28;20229;-72
2021/10/14 03:13:08;;;;;;;3.47;2.63;;;7.30;99.90;;;;;;5054985;28;20210;-72
2021/10/14 03:15:35;;;;;;;2.63;2.10;;;7.30;99.90;;;;;;5056232;28;20294;-72
2021/10/14 03:18:01;;;;;;;2.70;2.15;;;7.50;99.90;;;;;;5056490;28;20310;-72
2021/10/14 03:20:30;;;;;;;4.13;2.28;;;7.50;99.90;;;;;;5056263;28;20638;-72
2021/10/14 03:22:56;;;;;;;2.92;2.38;;;7.60;99.90;;;;;;5056077;28;20294;-72
2021/10/14 03:25:23;;;;;;;2.47;1.70;;;7.60;99.90;;;;;;5055756;28;20302;-72
2021/10/14 03:27:50;;;;;;;3.63;2.40;;;7.60;99.90;;;;;;5055999;28;20721;-72
2021/10/14 03:30:17;;;;;;;4.03;2.10;;;7.70;99.90;;;;;;5055983;28;20645;-72
2021/10/14 03:32:44;;;;;;;4.63;2.38;;;7.80;99.90;;;;;;5055815;28;20688;-72
2021/10/14 03:35:11;;;;;;;2.65;2.42;;;7.90;99.90;;;;;;5056029;28;20294;-72
2021/10/14 03:37:39;;;;;;;3.78;2.47;;;7.70;99.90;;;;;;5056088;28;20318;-72
2021/10/14 03:40:06;;;;;;;2.58;2.00;;;7.50;99.90;;;;;;5055935;28;20229;-72
2021/10/14 03:42:33;;;;;;;5.03;2.55;;;7.40;99.90;;;;;;5055853;28;20199;-72
2021/10/14 03:45:00;;;;;;;5.32;2.95;;;7.40;99.90;;;;;;5055768;28;20207;-72
2021/10/14 03:47:27;;;;;;;3.92;3.15;;;7.30;99.90;;;;;;5055381;28;20305;-72
2021/10/14 03:49:54;;;;;;;3.80;2.35;;;7.20;99.90;;;;;;5056027;28;20359;-72
2021/10/14 03:52:20;;;;;;;2.90;2.60;;;7.00;99.90;;;;;;5055725;28;20199;-72
2021/10/14 03:54:48;;;;;;;4.47;2.75;;;6.90;99.90;;;;;;5055662;28;20299;-72
2021/10/14 03:57:15;;;;;;;4.28;2.83;;;6.90;99.90;;;;;;5056009;28;20318;-72
2021/10/14 03:59:42;;;;;;;4.93;2.42;;;6.90;99.90;;;;;;5056552;28;20551;-73
2021/10/14 04:02:09;;;;;;;2.38;2.17;;;7.00;99.90;;;;;;5055872;28;20223;-72
2021/10/14 04:04:36;;;;;;;3.05;2.67;;;7.10;99.90;;;;;;5056099;28;20298;-73
2021/10/14 04:07:03;;;;;;;2.95;2.55;;;7.10;99.90;;;;;;5056097;28;20610;-72
2021/10/14 04:09:30;;;;;;;5.22;2.80;;;7.20;99.90;;;;;;5055759;28;20299;-72
2021/10/14 04:11:58;;;;;;;3.30;3.00;;;7.40;99.90;;;;;;5055892;28;20710;-72
2021/10/14 04:14:25;;;;;;;5.85;3.50;;;7.20;99.90;;;;;;5056076;28;20290;-73
2021/10/14 04:16:51;;;;;;;5.75;3.70;;;7.10;99.90;;;;;;5055682;28;20203;-73
2021/10/14 04:19:18;;;;;;;5.97;3.45;;;7.00;99.90;;;;;;5055712;28;20206;-73
2021/10/14 04:21:46;;;;;;;4.95;3.33;;;7.00;99.90;;;;;;5055455;28;20657;-72
2021/10/14 04:24:13;;;;;;;6.07;3.53;;;7.00;99.90;;;;;;5055150;28;20233;-72
2021/10/14 04:26:40;;;;;;;5.53;3.08;;;7.00;99.90;;;;;;5055803;28;20298;-72
2021/10/14 04:29:08;;;;;;;4.72;3.40;;;7.10;99.90;;;;;;5055258;28;20313;-72
2021/10/14 04:31:36;;;;;;;4.10;2.80;;;7.20;99.90;;;;;;5055403;28;20201;-72
2021/10/14 04:34:03;;;;;;;3.38;2.90;;;7.20;99.90;;;;;;5055238;28;20211;-72
2021/10/14 04:36:30;;;;;;;4.80;2.90;;;7.30;99.90;;;;;;5055474;28;20294;-72
2021/10/14 04:38:57;;;;;;;3.92;2.85;;;7.40;99.90;;;;;;5055167;28;20250;-72
2021/10/14 04:41:24;;;;;;;3.88;3.13;;;7.40;99.90;;;;;;5054954;28;20233;-72
2021/10/14 04:43:50;;;;;;;5.10;2.97;;;7.40;99.90;;;;;;5055872;28;20203;-72
2021/10/14 04:46:20;;;;;;;3.78;2.40;;;7.40;99.90;;;;;;5055983;28;20231;-72
2021/10/14 04:48:47;;;;;;;3.28;2.97;;;7.20;99.90;;;;;;5055612;28;20223;-73
2021/10/14 04:51:14;;;;;;;4.57;2.70;;;7.20;99.90;;;;;;5055725;28;20210;-72
2021/10/14 04:53:41;;;;;;;4.93;3.80;;;7.10;99.90;;;;;;5055369;28;20561;-73
2021/10/14 04:56:07;;;;;;;4.30;3.03;;;6.90;99.90;;;;;;5054863;28;20214;-72
2021/10/14 04:58:34;;;;;;;3.53;2.38;;;6.70;99.90;;;;;;5054734;28;20223;-73
2021/10/14 05:01:01;;;;;;;5.65;3.70;;;6.60;99.90;;;;;;5054360;28;20215;-72
2021/10/14 05:03:29;;;;;;;4.60;3.42;;;6.50;99.90;;;;;;5054630;28;20578;-73
2021/10/14 05:05:56;;;;;;;3.15;2.72;;;6.50;99.90;;;;;;5055090;28;20610;-73
2021/10/14 05:08:23;;;;;;;4.10;3.30;;;6.40;99.90;;;;;;5054640;28;20227;-72
2021/10/14 05:10:50;;;;;;;5.22;3.50;;;6.40;99.90;;;;;;5055144;28;20199;-73
2021/10/14 05:13:16;;;;;;;5.00;3.20;;;6.50;99.90;;;;;;5055291;28;20294;-72
2021/10/14 05:15:43;;;;;;;4.88;3.35;;;6.50;99.90;;;;;;5055585;28;20298;-73
2021/10/14 05:18:10;;;;;;;5.93;3.30;;;6.70;99.90;;;;;;5055284;28;20254;-73
2021/10/14 05:20:38;;;;;;;4.30;3.78;;;6.90;99.90;;;;;;5055311;28;20229;-73
2021/10/14 05:23:05;;;;;;;4.80;3.15;;;7.00;99.90;;;;;;5055147;28;20299;-72
2021/10/14 05:25:32;;;;;;;5.38;3.40;;;7.00;99.90;;;;;;5055189;28;20587;-73
2021/10/14 05:27:59;;;;;;;7.68;3.55;;;7.10;99.90;;;;;;5055657;28;20310;-73
2021/10/14 05:30:26;;;;;;;5.47;3.65;;;7.20;99.90;;;;;;5054643;28;20207;-73
2021/10/14 05:32:52;;;;;;;4.95;3.30;;;7.30;99.90;;;;;;5054875;28;20294;-72
2021/10/14 05:35:19;;;;;;;4.45;3.72;;;7.30;99.90;;;;;;5055013;28;20210;-73
2021/10/14 05:37:47;;;;;;;3.72;3.42;;;7.40;99.90;;;;;;5054311;28;20229;-73
2021/10/14 05:40:14;;;;;;;4.20;3.10;;;7.50;99.90;;;;;;5054307;28;20299;-73
2021/10/14 05:42:41;;;;;;;4.03;3.08;;;7.60;99.90;;;;;;5053801;28;20313;-73
2021/10/14 05:45:10;;;;;;;4.72;3.30;;;7.60;99.90;;;;;;5054105;28;20302;-73
2021/10/14 05:47:36;;;;;;;3.40;3.10;;;7.60;99.90;;;;;;5054960;28;20269;-73
2021/10/14 05:50:04;;;;;;;3.83;3.10;;;7.60;99.90;;;;;;5054611;28;20688;-73
2021/10/14 05:52:31;;;;;;;5.38;3.20;;;7.70;99.90;;;;;;5054095;28;20206;-72
2021/10/14 05:55:00;;;;;;;7.25;4.15;;;7.80;99.90;;;;;;5054063;28;20206;-73
2021/10/14 05:57:27;;;;;;;5.78;3.80;;;7.90;99.90;;;;;;5053949;28;20222;-73
2021/10/14 05:59:55;;;;;;;3.60;3.10;;;7.80;99.90;;;;;;5054281;28;20573;-73
2021/10/14 06:02:22;;;;;;;3.72;3.10;;;7.80;99.90;;;;;;5054328;28;20262;-73
2021/10/14 06:04:49;;;;;;;6.00;3.45;;;7.80;99.90;;;;;;5054402;28;20207;-72
2021/10/14 06:07:16;;;;;;;3.55;3.10;;;7.70;99.90;;;;;;5054257;28;20223;-73
2021/10/14 06:09:43;;;;;;;4.68;2.95;;;7.60;99.90;;;;;;5054996;28;20218;-73
2021/10/14 06:12:11;;;;;;;4.45;3.60;;;7.50;99.90;;;;;;5054808;28;20290;-73
2021/10/14 06:14:38;;;;;;;5.30;3.30;;;7.40;99.90;;;;;;5055122;28;20214;-73
2021/10/14 06:17:04;;;;;;;4.10;3.50;;;7.50;99.90;;;;;;5054698;28;20298;-73
2021/10/14 06:19:31;;;;;;;4.90;3.20;;;7.60;99.90;;;;;;5055305;28;20628;-73
2021/10/14 06:21:58;;;;;;;4.65;3.10;;;7.50;99.90;;;;;;5054599;28;20296;-73
2021/10/14 06:24:25;;;;;;;5.28;3.53;;;7.40;99.90;;;;;;5054797;28;20243;-73
2021/10/14 06:26:52;;;;;;;5.25;3.40;;;7.40;99.90;;;;;;5054786;28;20242;-73
2021/10/14 06:29:20;;;;;;;3.80;3.50;;;7.40;99.90;;;;;;5054762;28;20220;-73
2021/10/14 06:31:47;;;;;;;4.53;3.55;;;7.40;99.90;;;;;;5054306;28;20291;-72
2021/10/14 06:34:13;;;;;;;4.90;3.75;;;7.50;99.90;;;;;;5054939;28;20349;-73
2021/10/14 06:36:40;;;;;;;3.65;3.35;;;7.50;99.90;;;;;;5054313;28;20680;-73
2021/10/14 06:39:07;;;;;;;4.10;3.15;;;7.60;99.90;;;;;;5054606;28;20226;-73
2021/10/14 06:41:34;;;;;;;5.57;4.40;;;7.70;99.90;;;;;;5054960;28;20250;-72
2021/10/14 06:44:01;;;;;;;4.28;3.10;;;7.70;99.90;;;;;;5054254;28;20209;-73
2021/10/14 06:46:29;;;;;;;5.97;3.55;;;7.80;99.90;;;;;;5054225;28;20329;-73
2021/10/14 06:48:56;;;;;;;5.93;4.53;;;7.80;99.90;;;;;;5056479;28;20645;-73
2021/10/14 06:51:22;;;;;;;5.20;3.90;;;7.70;99.90;;;;;;5057920;28;20294;-72
2021/10/14 06:53:49;;;;;;;5.03;3.85;;;7.70;99.90;;;;;;5058219;28;20214;-73
2021/10/14 06:56:16;;;;;;;8.55;3.55;;;7.70;99.90;;;;;;5058645;28;20543;-73
2021/10/14 06:58:43;;;;;;;5.43;4.65;;;7.60;99.90;;;;;;5058195;28;20223;-73
2021/10/14 07:01:09;;;;;;;5.20;4.20;;;7.60;99.90;;;;;;5057396;28;20223;-73
2021/10/14 07:03:38;;;;;;;6.53;4.10;;;7.60;99.90;;;;;;5057316;28;20683;-73
2021/10/14 07:06:04;;;;;;;5.10;4.13;;;7.80;99.90;;;;;;5056973;28;20295;-73
2021/10/14 07:08:31;;;;;;;4.28;3.88;;;8.00;99.90;;;;;;5056791;28;20792;-73
2021/10/14 07:10:58;;;;;;;6.60;5.05;;;8.20;99.90;;;;;;5056876;28;20294;-73
2021/10/14 07:13:25;;;;;;;7.30;5.00;;;8.30;99.90;;;;;;5056527;28;20206;-73
2021/10/14 07:15:52;;;;;;;7.10;4.03;;;8.40;99.90;;;;;;5056811;28;20239;-73
2021/10/14 07:18:19;;;;;;;7.93;5.53;;;8.40;99.90;;;;;;5056562;28;20224;-73
2021/10/14 07:20:47;;;;;;;5.05;4.50;;;8.60;99.90;;;;;;5056357;28;20294;-73
2021/10/14 07:23:16;;;;;;;4.32;3.90;;;8.70;99.90;;;;;;5056337;28;20229;-72
2021/10/14 07:25:44;;;;;;;5.70;4.45;;;8.80;99.90;;;;;;5056432;28;20218;-73
2021/10/14 07:28:12;;;;;;;4.63;3.60;;;9.00;99.90;;;;;;5056324;28;20229;-72
2021/10/14 07:30:40;;;;;;;6.70;3.70;;;9.10;99.90;;;;;;5056972;28;20562;-73
2021/10/14 07:33:08;;;;;;;6.57;4.35;;;9.20;99.90;;;;;;5056583;28;20223;-72
2021/10/14 07:35:35;;;;;;;5.60;4.13;;;9.30;99.90;;;;;;5051442;28;20211;-72
2021/10/14 07:38:09;;;;;;;6.60;4.25;;;9.40;99.90;;;;;;5057994;28;20253;-74
2021/10/14 07:40:38;;;;;;;7.38;3.97;;;9.50;99.90;;;;;;5056611;28;20731;-74
2021/10/14 07:43:06;;;;;;;7.68;4.50;;;9.40;99.90;;;;;;5056205;28;20234;-74
2021/10/14 07:45:33;;;;;;;7.10;5.72;;;9.30;99.90;;;;;;5056532;28;20203;-74
2021/10/14 07:48:01;;;;;;;6.30;4.82;;;9.30;99.90;;;;;;5056041;28;20238;-73
2021/10/14 07:50:28;;;;;;;6.32;5.00;;;9.30;99.90;;;;;;5055991;28;20203;-74
2021/10/14 07:52:55;;;;;;;7.50;4.70;;;9.40;99.90;;;;;;5055504;28;20231;-74
2021/10/14 07:55:23;;;;;;;6.40;4.63;;;9.60;99.90;;;;;;5055857;28;20278;-72
2021/10/14 07:57:50;;;;;;;6.07;4.22;;;9.80;99.90;;;;;;5055222;28;20333;-72
2021/10/14 08:00:17;;;;;;;8.13;5.00;;;9.90;99.90;;;;;;5054934;28;20608;-72
2021/10/14 08:02:44;;;;;;;6.10;5.00;;;10.10;99.90;;;;;;5055232;28;20264;-72
2021/10/14 08:05:11;;;;;;;6.70;4.88;;;10.10;99.90;;;;;;5055787;28;20211;-72
2021/10/14 08:07:38;;;;;;;6.50;4.93;;;10.10;99.90;;;;;;5055201;28;20223;-72
2021/10/14 08:10:05;;;;;;;6.63;5.00;;;9.90;99.90;;;;;;5055880;28;20199;-71
2021/10/14 08:12:34;;;;;;;4.95;4.18;;;9.70;99.90;;;;;;5055048;28;20203;-71
2021/10/14 08:15:00;;;;;;;5.53;4.55;;;9.60;99.90;;;;;;5055936;28;20204;-72
2021/10/14 08:17:27;;;;;;;8.13;5.47;;;9.50;99.90;;;;;;5055713;28;20314;-72
2021/10/14 08:19:54;;;;;;;6.28;4.15;;;9.40;99.90;;;;;;5055574;28;20212;-71
2021/10/14 08:22:21;;;;;;;5.43;4.70;;;9.40;99.90;;;;;;5055501;28;20219;-71
2021/10/14 08:24:48;;;;;;;9.25;5.50;;;9.50;99.90;;;;;;5055248;28;20212;-72
2021/10/14 08:27:14;;;;;;;7.10;4.57;;;9.60;99.90;;;;;;5055027;28;22022;-72
2021/10/14 08:29:44;;;;;;;10.40;4.70;;;9.80;99.90;;;;;;5054869;28;20213;-72
2021/10/14 08:32:11;;;;;;;6.95;5.13;;;10.00;99.90;;;;;;5054759;28;20200;-71
2021/10/14 08:34:37;;;;;;;5.20;4.32;;;10.20;99.90;;;;;;5054735;28;20572;-72
2021/10/14 08:37:04;;;;;;;7.30;5.47;;;10.20;99.90;;;;;;5054470;28;20214;-72
2021/10/14 08:39:31;;;;;;;5.70;4.60;;;10.30;99.90;;;;;;5054685;28;20291;-71
2021/10/14 08:41:58;;;;;;;7.03;4.85;;;10.30;99.90;;;;;;5054458;28;20314;-71
2021/10/14 08:44:26;;;;;;;5.40;3.53;;;10.30;99.90;;;;;;5054323;28;20294;-72
2021/10/14 08:46:55;;;;;;;5.85;4.30;;;10.40;99.90;;;;;;5054485;28;20299;-72
2021/10/14 08:49:23;;;;;;;6.80;3.60;;;10.40;99.90;;;;;;5054595;28;20246;-71
2021/10/14 08:51:52;;;;;;;5.70;4.30;;;10.20;99.90;;;;;;5054117;28;20657;-71
2021/10/14 08:54:19;;;;;;;6.45;4.32;;;10.10;99.90;;;;;;5054631;28;20208;-72
2021/10/14 08:56:48;;;;;;;6.40;4.72;;;10.00;99.90;;;;;;5054608;28;20214;-72
2021/10/14 08:59:18;;;;;;;6.68;4.70;;;10.10;99.90;;;;;;5054101;28;20309;-72
2021/10/14 09:02:04;;;;;;;6.72;4.50;;;10.10;99.90;;;;;;5054172;28;20223;-71
2021/10/14 09:04:32;;;;;;;5.60;4.68;;;10.20;99.90;;;;;;5054413;28;20207;-72
2021/10/14 09:07:09;;;;;;;5.68;4.53;;;10.30;99.90;;;;;;5053944;28;20298;-72
2021/10/14 09:09:38;;;;;;;5.88;3.97;;;10.60;99.90;;;;;;5054235;28;20191;-72
2021/10/14 09:12:05;;;;;;;5.25;3.97;;;10.80;99.90;;;;;;5053229;28;20604;-71
2021/10/14 09:14:32;;;;;;;6.00;4.75;;;11.10;99.90;;;;;;5054301;28;20207;-72
2021/10/14 09:17:00;;;;;;;5.57;4.30;;;11.40;99.90;;;;;;5054052;28;20630;-72
2021/10/14 09:19:29;;;;;;;4.30;3.90;;;11.60;99.90;;;;;;5054196;28;20290;-71
2021/10/14 09:22:00;;;;;;;4.50;3.78;;;11.80;99.90;;;;;;5054634;28;20257;-71
2021/10/14 09:24:30;;;;;;;4.50;3.72;;;12.00;99.90;;;;;;5054877;28;20238;-72
2021/10/14 09:26:59;;;;;;;4.20;3.40;;;12.20;99.90;;;;;;5055490;28;20569;-72
2021/10/14 09:29:27;;;;;;;5.32;4.03;;;12.40;99.90;;;;;;5055803;28;20562;-72
2021/10/14 09:31:59;;;;;;;4.18;3.70;;;12.60;99.90;;;;;;5055707;28;20211;-71
2021/10/14 09:34:34;;;;;;;4.40;3.22;;;12.80;99.90;;;;;;5055651;28;20271;-72
2021/10/14 09:37:04;;;;;;;4.43;3.28;;;12.90;99.90;;;;;;5055867;28;20206;-72
2021/10/14 09:39:31;;;;;;;4.85;2.70;;;13.00;99.90;;;;;;5055835;28;20280;-72
2021/10/14 09:41:59;;;;;;;4.78;2.90;;;13.20;99.90;;;;;;5055107;28;20318;-71
2021/10/14 09:44:27;;;;;;;4.97;3.90;;;13.20;99.90;;;;;;5055478;28;20760;-72
2021/10/14 09:46:55;;;;;;;7.22;3.13;;;13.20;99.90;;;;;;5055142;28;20246;-72
2021/10/14 09:49:24;;;;;;;4.88;3.50;;;13.00;99.90;;;;;;5055248;28;20203;-72
2021/10/14 09:51:51;;;;;;;3.85;3.10;;;13.00;99.90;;;;;;5055312;28;20200;-71
2021/10/14 09:54:19;;;;;;;3.50;2.88;;;12.70;99.90;;;;;;5054126;28;20204;-72
2021/10/14 09:56:46;;;;;;;2.80;2.15;;;12.70;99.90;;;;;;5053521;28;20206;-72
2021/10/14 09:59:13;;;;;;;2.97;2.40;;;12.40;99.90;;;;;;5053320;28;20238;-72
2021/10/14 10:01:41;;;;;;;2.63;2.42;;;12.30;99.90;;;;;;5053550;28;20203;-71
2021/10/14 10:04:08;;;;;;;3.95;2.40;;;12.30;99.90;;;;;;5053832;28;20207;-72
2021/10/14 10:06:37;;;;;;;3.65;2.88;;;12.40;99.90;;;;;;5053863;28;20226;-72
2021/10/14 10:09:09;;;;;;;3.40;2.50;;;12.50;99.90;;;;;;5053968;28;20250;-72
2021/10/14 10:11:42;;;;;;;3.72;2.95;;;12.70;99.90;;;;;;5053531;28;20684;-72
2021/10/14 10:14:10;;;;;;;3.15;2.55;;;12.90;99.90;;;;;;5054060;28;20295;-72
2021/10/14 10:16:54;;;;;;;2.53;2.30;;;13.00;99.90;;;;;;5054585;28;20265;-72
2021/10/14 10:19:39;;;;;;;2.78;2.10;;;13.20;99.90;;;;;;5053856;28;20192;-72
2021/10/14 10:22:06;;;;;;;2.65;2.17;;;13.10;99.90;;;;;;5054438;28;20294;-72
2021/10/14 10:24:34;;;;;;;2.10;1.90;;;12.90;99.90;;;;;;5057570;28;20211;-72
2021/10/14 10:27:10;;;;;;;3.45;2.85;;;12.90;99.90;;;;;;5057727;28;20203;-72
2021/10/14 10:29:42;;;;;;;5.82;3.03;;;12.90;99.90;;;;;;5057199;28;20210;-72
2021/10/14 10:32:23;;;;;;;3.70;2.72;;;12.80;99.90;;;;;;5057124;28;20210;-71
2021/10/14 10:34:55;;;;;;;3.60;3.00;;;12.80;99.90;;;;;;5057317;28;20213;-72
2021/10/14 10:37:30;;;;;;;5.45;2.65;;;12.90;99.90;;;;;;5057435;28;20224;-72
2021/10/14 10:40:01;;;;;;;4.85;3.60;;;12.90;99.90;;;;;;5057714;28;20183;-72
2021/10/14 10:42:30;;;;;;;5.38;2.75;;;12.90;99.90;;;;;;5057280;28;20219;-71
2021/10/14 10:45:08;;;;;;;3.80;2.80;;;12.90;99.90;;;;;;5057320;28;20204;-72
2021/10/14 10:47:42;;;;;;;4.00;2.83;;;13.00;99.90;;;;;;5057798;28;20223;-72
2021/10/14 10:50:11;;;;;;;2.92;2.70;;;13.10;99.90;;;;;;5057856;28;20246;-72
2021/10/14 10:52:39;;;;;;;4.43;2.88;;;13.30;99.90;;;;;;5058313;28;20535;-71
2021/10/14 10:55:14;;;;;;;4.88;2.70;;;13.50;99.90;;;;;;5058108;28;20679;-72
2021/10/14 10:57:46;;;;;;;3.90;2.90;;;13.80;99.90;;;;;;5057232;28;20227;-72
2021/10/14 11:00:14;;;;;;;3.10;2.50;;;14.00;99.90;;;;;;5057176;28;20291;-72
2021/10/14 11:02:40;;;;;;;2.70;2.15;;;14.30;99.90;;;;;;5056270;28;20225;-71
2021/10/14 11:05:08;;;;;;;2.97;2.20;;;14.60;99.90;;;;;;5056610;28;20291;-72
2021/10/14 11:07:35;;;;;;;2.47;1.92;;;14.60;99.90;;;;;;5056878;28;20381;-72
2021/10/14 11:10:02;;;;;;;2.00;1.65;;;14.70;99.90;;;;;;5057447;28;20221;-72
2021/10/14 11:12:29;;;;;;;2.58;1.80;;;14.50;99.90;;;;;;5057567;28;20212;-71
2021/10/14 11:14:57;;;;;;;1.95;1.70;;;14.50;98.40;;;;;;5056702;28;20215;-72
2021/10/14 11:17:26;;;;;;;2.13;1.58;;;14.60;97.70;;;;;;5056615;28;20224;-72
2021/10/14 11:20:06;;;;;;;1.77;1.40;;;14.60;96.80;;;;;;5056651;28;20235;-72
2021/10/14 11:22:33;;;;;;;2.90;1.77;;;14.90;98.00;;;;;;5055839;28;20606;-72
2021/10/14 11:25:03;;;;;;;3.72;2.00;;;15.20;96.90;;;;;;5055862;28;20217;-72
2021/10/14 11:27:31;;;;;;;1.95;1.58;;;15.30;96.20;;;;;;5056189;28;20622;-72
2021/10/14 11:30:16;;;;;;;2.15;1.95;;;15.50;97.70;;;;;;5055826;28;20668;-72
2021/10/14 11:32:49;;;;;;;3.35;2.33;;;15.40;96.00;;;;;;5056483;28;20204;-72
2021/10/14 11:35:16;;;;;;;2.90;2.60;;;15.10;96.10;;;;;;5056151;28;20205;-72
2021/10/14 11:37:43;;;;;;;2.42;2.17;;;14.90;96.10;;;;;;5056406;28;20306;-72
2021/10/14 11:40:10;;;;;;;2.25;1.90;;;14.90;97.50;;;;;;5056502;28;20300;-72
2021/10/14 11:42:37;;;;;;;3.08;2.33;;;14.80;96.30;;;;;;5056587;28;20315;-72
2021/10/14 11:45:04;;;;;;;5.90;2.70;;;14.80;96.80;;;;;;5056138;28;20228;-72
2021/10/14 11:47:33;;;;;;;2.45;2.25;;;15.00;96.80;;;;;;5055850;28;20712;-72
2021/10/14 11:50:01;;;;;;;2.65;2.22;;;15.20;97.20;;;;;;5055728;28;20203;-72
2021/10/14 11:52:28;;;;;;;4.13;2.63;;;15.40;96.10;;;;;;5055651;28;20611;-71
2021/10/14 11:55:02;;;;;;;4.35;2.92;;;15.60;96.30;;;;;;5055693;28;20206;-72
2021/10/14 11:57:33;;;;;;;3.17;2.67;;;15.80;95.40;;;;;;5055726;28;20230;-72
2021/10/14 12:00:00;;;;;;;2.17;2.00;;;15.90;96.70;;;;;;5055511;28;20199;-72
2021/10/14 12:02:29;;;;;;;2.88;2.50;;;16.00;95.50;;;;;;5055202;28;20203;-72
2021/10/14 12:05:01;;;;;;;5.72;2.92;;;16.00;97.20;;;;;;5055689;28;20203;-72
2021/10/14 12:07:30;;;;;;;2.35;2.15;;;16.10;96.00;;;;;;5055729;28;20566;-72
2021/10/14 12:09:57;;;;;;;3.75;2.55;;;16.20;95.80;;;;;;5055912;28;20209;-72
2021/10/14 12:12:26;;;;;;;2.85;2.60;;;16.30;94.70;;;;;;5055206;28;20558;-71
2021/10/14 12:15:00;;;;;;;3.47;2.45;;;16.30;94.50;;;;;;5055031;28;20209;-72
2021/10/14 12:17:37;;;;;;;2.42;2.15;;;16.20;95.20;;;;;;5055114;28;20221;-72
2021/10/14 12:20:13;;;;;;;5.88;2.85;;;16.10;94.20;;;;;;5055657;28;20183;-72
2021/10/14 12:22:41;;;;;;;4.10;2.30;;;16.10;94.90;;;;;;5054700;28;20203;-71
2021/10/14 12:25:08;;;;;;;1.75;1.65;;;16.20;95.40;;;;;;5055076;28;20293;-72
2021/10/14 12:27:46;;;;;;;2.53;2.10;;;16.10;95.10;;;;;;5054785;28;20233;-72
2021/10/14 12:30:28;;;;;;;3.13;2.83;;;15.80;95.80;;;;;;5054732;28;20203;-71
2021/10/14 12:32:58;;;;;;;2.03;1.83;;;15.80;95.50;;;;;;5052556;28;20572;-71
2021/10/14 12:35:28;;;;;;;3.08;2.25;;;15.80;96.30;;;;;;5054634;28;20207;-72
2021/10/14 12:38:06;;;;;;;3.13;2.30;;;15.80;96.20;;;;;;5054359;28;20721;-72
2021/10/14 12:40:34;;;;;;;3.45;2.50;;;15.80;96.20;;;;;;5054825;28;20206;-72
2021/10/14 12:43:05;;;;;;;3.70;2.42;;;15.70;96.70;;;;;;5054358;28;20233;-71
2021/10/14 12:45:44;;;;;;;2.22;2.03;;;15.70;97.00;;;;;;5053518;28;20238;-72
2021/10/14 12:48:19;;;;;;;3.05;2.28;;;15.80;96.90;;;;;;5054694;28;20269;-72
2021/10/14 12:51:12;;;;;;;2.40;2.15;;;15.60;96.90;;;;;;5054544;28;20210;-71
2021/10/14 12:53:42;;;;;;;3.03;2.20;;;15.60;97.40;;;;;;5054405;28;20587;-72
2021/10/14 12:56:10;;;;;;;2.20;2.00;;;15.70;97.50;;;;;;5054201;28;20203;-72
2021/10/14 12:58:37;;;;;;;2.33;1.70;;;15.80;97.30;;;;;;5054258;28;20233;-72